sensor_id;sensor_type;location;lat;lon;timestamp;pressure;altitude;pressure_sealevel;temperature;humidity
43125;BME280;49182;50.788;7.318;2023-12-28T00:00:33;100506.34;;;10.19;66.80
43125;BME280;49182;50.788;7.318;2023-12-28T00:05:35;100513.19;;;10.21;67.69
43125;BME280;49182;50.788;7.318;2023-12-28T00:10:38;100522.06;;;10.20;67.30
43125;BME280;49182;50.788;7.318;2023-12-28T00:15:40;100527.47;;;10.19;68.08
43125;BME280;49182;50.788;7.318;2023-12-28T00:20:41;100532.97;;;10.06;67.94
43125;BME280;49182;50.788;7.318;2023-12-28T00:25:44;100545.16;;;10.07;67.55
43125;BME280;49182;50.788;7.318;2023-12-28T00:30:46;100545.56;;;10.02;70.01
43125;BME280;49182;50.788;7.318;2023-12-28T00:35:48;100550.72;;;10.04;70.67
43125;BME280;49182;50.788;7.318;2023-12-28T00:40:51;100521.28;;;9.68;72.38
43125;BME280;49182;50.788;7.318;2023-12-28T00:45:53;100574.75;;;9.80;75.72
43125;BME280;49182;50.788;7.318;2023-12-28T00:50:54;100582.78;;;9.58;80.31
43125;BME280;49182;50.788;7.318;2023-12-28T00:55:57;100591.47;;;9.49;82.33
43125;BME280;49182;50.788;7.318;2023-12-28T01:00:59;100583.63;;;9.38;82.74
43125;BME280;49182;50.788;7.318;2023-12-28T01:06:01;100594.34;;;9.25;83.15
43125;BME280;49182;50.788;7.318;2023-12-28T01:11:04;100590.09;;;9.33;82.56
43125;BME280;49182;50.788;7.318;2023-12-28T01:16:06;100611.28;;;9.32;82.47
43125;BME280;49182;50.788;7.318;2023-12-28T01:21:08;100612.78;;;9.25;83.20
43125;BME280;49182;50.788;7.318;2023-12-28T01:26:13;100609.78;;;9.29;82.91
43125;BME280;49182;50.788;7.318;2023-12-28T01:31:15;100624.47;;;9.32;84.02
43125;BME280;49182;50.788;7.318;2023-12-28T01:36:18;100622.22;;;9.27;85.37
43125;BME280;49182;50.788;7.318;2023-12-28T01:41:22;100633.03;;;9.24;84.21
43125;BME280;49182;50.788;7.318;2023-12-28T01:46:23;100651.66;;;9.32;84.49
43125;BME280;49182;50.788;7.318;2023-12-28T01:51:25;100625.63;;;9.18;84.12
43125;BME280;49182;50.788;7.318;2023-12-28T01:56:28;100654.91;;;9.36;85.60
43125;BME280;49182;50.788;7.318;2023-12-28T02:01:30;100637.97;;;9.39;85.43
43125;BME280;49182;50.788;7.318;2023-12-28T02:06:32;100654.06;;;9.36;84.72
43125;BME280;49182;50.788;7.318;2023-12-28T02:11:36;100663.19;;;9.31;85.90
43125;BME280;49182;50.788;7.318;2023-12-28T02:16:43;100655.50;;;9.28;87.05
43125;BME280;49182;50.788;7.318;2023-12-28T02:21:47;100660.16;;;9.36;86.64
43125;BME280;49182;50.788;7.318;2023-12-28T02:26:50;100654.91;;;9.36;86.98
43125;BME280;49182;50.788;7.318;2023-12-28T02:31:58;100655.22;;;9.43;86.96
43125;BME280;49182;50.788;7.318;2023-12-28T02:37:04;100665.31;;;9.38;87.53
43125;BME280;49182;50.788;7.318;2023-12-28T02:42:08;100653.94;;;9.37;88.62
43125;BME280;49182;50.788;7.318;2023-12-28T02:47:10;100655.13;;;9.33;88.86
43125;BME280;49182;50.788;7.318;2023-12-28T02:52:12;100669.97;;;9.34;89.33
43125;BME280;49182;50.788;7.318;2023-12-28T02:57:15;100651.16;;;9.39;89.51
43125;BME280;49182;50.788;7.318;2023-12-28T03:02:17;100652.38;;;9.34;89.24
43125;BME280;49182;50.788;7.318;2023-12-28T03:07:20;100602.66;;;9.09;89.32
43125;BME280;49182;50.788;7.318;2023-12-28T03:12:24;100649.69;;;9.46;88.77
43125;BME280;49182;50.788;7.318;2023-12-28T03:17:26;100643.41;;;9.37;89.54
43125;BME280;49182;50.788;7.318;2023-12-28T03:22:29;100657.31;;;9.28;89.29
43125;BME280;49182;50.788;7.318;2023-12-28T03:27:32;100650.25;;;9.28;89.27
43125;BME280;49182;50.788;7.318;2023-12-28T03:32:33;100641.66;;;9.15;90.39
43125;BME280;49182;50.788;7.318;2023-12-28T03:37:35;100647.31;;;9.11;91.12
43125;BME280;49182;50.788;7.318;2023-12-28T03:42:38;100653.66;;;9.08;91.99
43125;BME280;49182;50.788;7.318;2023-12-28T03:47:40;100648.38;;;9.19;91.04
43125;BME280;49182;50.788;7.318;2023-12-28T03:52:42;100662.41;;;9.09;91.38
43125;BME280;49182;50.788;7.318;2023-12-28T03:57:45;100655.34;;;9.09;91.24
43125;BME280;49182;50.788;7.318;2023-12-28T04:02:46;100652.72;;;8.98;91.95
43125;BME280;49182;50.788;7.318;2023-12-28T04:07:50;100651.44;;;8.81;92.88
43125;BME280;49182;50.788;7.318;2023-12-28T04:12:54;100645.56;;;8.78;93.46
43125;BME280;49182;50.788;7.318;2023-12-28T04:17:56;100612.97;;;8.36;93.78
43125;BME280;49182;50.788;7.318;2023-12-28T04:22:59;100648.25;;;8.44;94.85
43125;BME280;49182;50.788;7.318;2023-12-28T04:28:02;100636.06;;;8.32;95.62
43125;BME280;49182;50.788;7.318;2023-12-28T04:33:04;100640.66;;;8.06;96.33
43125;BME280;49182;50.788;7.318;2023-12-28T04:38:08;100643.50;;;8.03;97.16
43125;BME280;49182;50.788;7.318;2023-12-28T04:43:11;100637.28;;;7.93;98.69
43125;BME280;49182;50.788;7.318;2023-12-28T04:48:13;100637.66;;;7.89;98.64
43125;BME280;49182;50.788;7.318;2023-12-28T04:53:15;100635.00;;;7.78;98.81
43125;BME280;49182;50.788;7.318;2023-12-28T04:58:18;100634.34;;;7.63;98.90
43125;BME280;49182;50.788;7.318;2023-12-28T05:03:21;100634.53;;;7.49;98.95
43125;BME280;49182;50.788;7.318;2023-12-28T05:08:23;100634.38;;;7.39;99.97
43125;BME280;49182;50.788;7.318;2023-12-28T05:13:27;100630.16;;;7.25;99.59
43125;BME280;49182;50.788;7.318;2023-12-28T05:18:29;100649.53;;;7.12;99.88
43125;BME280;49182;50.788;7.318;2023-12-28T05:23:31;100641.69;;;6.99;100.00
43125;BME280;49182;50.788;7.318;2023-12-28T05:28:34;100657.03;;;6.93;100.00
43125;BME280;49182;50.788;7.318;2023-12-28T05:33:35;100665.34;;;6.86;100.00
43125;BME280;49182;50.788;7.318;2023-12-28T05:38:37;100671.59;;;6.73;100.00
43125;BME280;49182;50.788;7.318;2023-12-28T05:43:40;100658.28;;;6.63;100.00
43125;BME280;49182;50.788;7.318;2023-12-28T05:48:42;100662.94;;;6.60;100.00
43125;BME280;49182;50.788;7.318;2023-12-28T05:53:43;100673.53;;;6.45;100.00
43125;BME280;49182;50.788;7.318;2023-12-28T05:58:47;100677.53;;;6.38;100.00
43125;BME280;49182;50.788;7.318;2023-12-28T06:03:48;100697.22;;;6.31;100.00
43125;BME280;49182;50.788;7.318;2023-12-28T06:08:50;100695.34;;;6.21;100.00
43125;BME280;49182;50.788;7.318;2023-12-28T06:13:53;100687.16;;;6.13;100.00
43125;BME280;49182;50.788;7.318;2023-12-28T06:18:55;100697.13;;;6.07;100.00
43125;BME280;49182;50.788;7.318;2023-12-28T06:23:57;100693.75;;;5.93;100.00
43125;BME280;49182;50.788;7.318;2023-12-28T06:29:00;100711.16;;;5.94;100.00
43125;BME280;49182;50.788;7.318;2023-12-28T06:34:01;100727.09;;;5.91;100.00
43125;BME280;49182;50.788;7.318;2023-12-28T06:39:03;100732.16;;;5.80;100.00
43125;BME280;49182;50.788;7.318;2023-12-28T06:44:06;100724.81;;;5.72;100.00
43125;BME280;49182;50.788;7.318;2023-12-28T06:49:08;100727.81;;;5.66;100.00
43125;BME280;49182;50.788;7.318;2023-12-28T06:54:13;100718.69;;;5.59;100.00
43125;BME280;49182;50.788;7.318;2023-12-28T06:59:16;100724.22;;;5.54;100.00
43125;BME280;49182;50.788;7.318;2023-12-28T07:04:18;100708.63;;;5.53;100.00
43125;BME280;49182;50.788;7.318;2023-12-28T07:09:20;100712.47;;;5.47;100.00
43125;BME280;49182;50.788;7.318;2023-12-28T07:14:24;100708.97;;;5.34;100.00
43125;BME280;49182;50.788;7.318;2023-12-28T07:19:26;100716.59;;;5.24;100.00
43125;BME280;49182;50.788;7.318;2023-12-28T07:24:27;100722.22;;;5.18;100.00
43125;BME280;49182;50.788;7.318;2023-12-28T07:29:30;100733.16;;;5.11;100.00
43125;BME280;49182;50.788;7.318;2023-12-28T07:34:32;100746.72;;;5.03;100.00
43125;BME280;49182;50.788;7.318;2023-12-28T07:39:34;100756.06;;;4.93;100.00
43125;BME280;49182;50.788;7.318;2023-12-28T07:44:37;100757.19;;;4.89;100.00
43125;BME280;49182;50.788;7.318;2023-12-28T07:49:39;100748.97;;;4.81;100.00
43125;BME280;49182;50.788;7.318;2023-12-28T07:54:40;100737.28;;;4.58;100.00
43125;BME280;49182;50.788;7.318;2023-12-28T07:59:44;100760.38;;;4.66;100.00
43125;BME280;49182;50.788;7.318;2023-12-28T08:04:45;100758.22;;;4.58;100.00
43125;BME280;49182;50.788;7.318;2023-12-28T08:09:47;100760.56;;;4.48;100.00
43125;BME280;49182;50.788;7.318;2023-12-28T08:14:51;100721.28;;;4.20;100.00
43125;BME280;49182;50.788;7.318;2023-12-28T08:19:52;100762.97;;;4.37;100.00
43125;BME280;49182;50.788;7.318;2023-12-28T08:24:54;100770.97;;;4.34;100.00
43125;BME280;49182;50.788;7.318;2023-12-28T08:29:57;100779.00;;;4.31;100.00
43125;BME280;49182;50.788;7.318;2023-12-28T08:34:59;100788.34;;;4.35;100.00
43125;BME280;49182;50.788;7.318;2023-12-28T08:40:01;100792.72;;;4.35;100.00
43125;BME280;49182;50.788;7.318;2023-12-28T08:45:05;100794.13;;;4.40;100.00
43125;BME280;49182;50.788;7.318;2023-12-28T08:50:07;100796.31;;;4.48;100.00
43125;BME280;49182;50.788;7.318;2023-12-28T08:55:09;100796.03;;;4.53;100.00
43125;BME280;49182;50.788;7.318;2023-12-28T09:00:13;100799.56;;;4.52;100.00
43125;BME280;49182;50.788;7.318;2023-12-28T09:05:15;100804.78;;;4.52;100.00
43125;BME280;49182;50.788;7.318;2023-12-28T09:10:16;100812.09;;;4.61;100.00
43125;BME280;49182;50.788;7.318;2023-12-28T09:15:20;100819.78;;;4.78;100.00
43125;BME280;49182;50.788;7.318;2023-12-28T09:20:21;100827.63;;;4.92;100.00
43125;BME280;49182;50.788;7.318;2023-12-28T09:25:23;100814.91;;;5.14;100.00
43125;BME280;49182;50.788;7.318;2023-12-28T09:30:26;100818.63;;;5.39;100.00
43125;BME280;49182;50.788;7.318;2023-12-28T09:35:28;100829.63;;;5.58;100.00
43125;BME280;49182;50.788;7.318;2023-12-28T09:40:29;100830.66;;;5.82;100.00
43125;BME280;49182;50.788;7.318;2023-12-28T09:45:32;100830.88;;;6.06;100.00
43125;BME280;49182;50.788;7.318;2023-12-28T09:50:34;100827.41;;;6.32;100.00
43125;BME280;49182;50.788;7.318;2023-12-28T09:55:35;100792.81;;;6.53;100.00
43125;BME280;49182;50.788;7.318;2023-12-28T10:00:39;100818.47;;;7.23;100.00
43125;BME280;49182;50.788;7.318;2023-12-28T10:05:41;100815.06;;;7.83;100.00
43125;BME280;49182;50.788;7.318;2023-12-28T10:10:44;100769.91;;;8.24;100.00
43125;BME280;49182;50.788;7.318;2023-12-28T10:15:48;100802.34;;;9.04;92.71
43125;BME280;49182;50.788;7.318;2023-12-28T10:20:50;100804.75;;;9.29;90.41
43125;BME280;49182;50.788;7.318;2023-12-28T10:25:56;100774.28;;;9.48;86.16
43125;BME280;49182;50.788;7.318;2023-12-28T10:30:59;100779.59;;;9.80;83.63
43125;BME280;49182;50.788;7.318;2023-12-28T10:36:04;100766.81;;;9.96;81.90
43125;BME280;49182;50.788;7.318;2023-12-28T10:41:08;100738.75;;;9.95;79.77
43125;BME280;49182;50.788;7.318;2023-12-28T10:46:13;100775.50;;;10.39;77.57
43125;BME280;49182;50.788;7.318;2023-12-28T10:51:21;100767.81;;;10.57;77.26
43125;BME280;49182;50.788;7.318;2023-12-28T10:56:33;100758.91;;;10.79;76.89
43125;BME280;49182;50.788;7.318;2023-12-28T11:01:40;100759.31;;;11.05;73.85
43125;BME280;49182;50.788;7.318;2023-12-28T11:06:43;100741.84;;;11.23;73.14
43125;BME280;49182;50.788;7.318;2023-12-28T11:11:45;100738.81;;;11.47;71.60
43125;BME280;49182;50.788;7.318;2023-12-28T11:16:49;100734.78;;;11.62;70.47
43125;BME280;49182;50.788;7.318;2023-12-28T11:21:52;100727.72;;;11.82;67.74
43125;BME280;49182;50.788;7.318;2023-12-28T11:26:54;100725.38;;;11.88;66.95
43125;BME280;49182;50.788;7.318;2023-12-28T11:31:59;100712.56;;;11.84;66.48
43125;BME280;49182;50.788;7.318;2023-12-28T11:37:04;100716.00;;;12.13;66.65
43125;BME280;49182;50.788;7.318;2023-12-28T11:42:08;100702.22;;;12.19;67.25
43125;BME280;49182;50.788;7.318;2023-12-28T11:47:12;100712.63;;;12.30;65.39
43125;BME280;49182;50.788;7.318;2023-12-28T11:52:22;100702.97;;;12.48;65.73
43125;BME280;49182;50.788;7.318;2023-12-28T11:57:25;100690.28;;;12.52;66.62
43125;BME280;49182;50.788;7.318;2023-12-28T12:02:28;100698.97;;;12.72;64.03
43125;BME280;49182;50.788;7.318;2023-12-28T12:07:29;100703.94;;;12.84;64.05
43125;BME280;49182;50.788;7.318;2023-12-28T12:12:31;100690.88;;;12.73;63.89
43125;BME280;49182;50.788;7.318;2023-12-28T12:17:35;100690.16;;;12.81;63.30
43125;BME280;49182;50.788;7.318;2023-12-28T12:22:36;100694.56;;;12.90;63.69
43125;BME280;49182;50.788;7.318;2023-12-28T12:27:38;100687.28;;;13.02;62.78
43125;BME280;49182;50.788;7.318;2023-12-28T12:32:42;100667.88;;;13.01;62.57
43125;BME280;49182;50.788;7.318;2023-12-28T12:37:44;100673.09;;;13.11;62.95
43125;BME280;49182;50.788;7.318;2023-12-28T12:42:52;100669.53;;;13.29;61.86
43125;BME280;49182;50.788;7.318;2023-12-28T12:47:57;100671.56;;;13.18;61.08
43125;BME280;49182;50.788;7.318;2023-12-28T12:52:59;100651.06;;;13.20;61.27
43125;BME280;49182;50.788;7.318;2023-12-28T12:58:02;100648.81;;;13.15;60.23
43125;BME280;49182;50.788;7.318;2023-12-28T13:03:08;100633.09;;;13.04;59.55
43125;BME280;49182;50.788;7.318;2023-12-28T13:08:10;100669.00;;;12.98;59.25
43125;BME280;49182;50.788;7.318;2023-12-28T13:13:12;100672.53;;;13.17;59.88
43125;BME280;49182;50.788;7.318;2023-12-28T13:18:16;100671.78;;;12.97;59.32
43125;BME280;49182;50.788;7.318;2023-12-28T13:23:17;100672.88;;;12.77;59.16
43125;BME280;49182;50.788;7.318;2023-12-28T13:28:19;100664.78;;;12.78;60.28
43125;BME280;49182;50.788;7.318;2023-12-28T13:33:22;100668.34;;;12.60;61.63
43125;BME280;49182;50.788;7.318;2023-12-28T13:38:24;100659.34;;;12.52;61.97
43125;BME280;49182;50.788;7.318;2023-12-28T13:43:25;100657.16;;;12.38;61.66
43125;BME280;49182;50.788;7.318;2023-12-28T13:48:28;100665.28;;;12.27;63.40
43125;BME280;49182;50.788;7.318;2023-12-28T13:53:30;100669.34;;;12.22;62.36
43125;BME280;49182;50.788;7.318;2023-12-28T13:58:32;100669.78;;;12.07;63.42
43125;BME280;49182;50.788;7.318;2023-12-28T14:03:35;100664.22;;;12.01;63.53
43125;BME280;49182;50.788;7.318;2023-12-28T14:08:37;100667.44;;;11.95;64.24
43125;BME280;49182;50.788;7.318;2023-12-28T14:13:39;100654.78;;;11.89;63.90
43125;BME280;49182;50.788;7.318;2023-12-28T14:18:42;100661.72;;;11.70;65.27
43125;BME280;49182;50.788;7.318;2023-12-28T14:23:44;100630.53;;;11.55;64.17
43125;BME280;49182;50.788;7.318;2023-12-28T14:28:46;100640.97;;;11.37;64.62
43125;BME280;49182;50.788;7.318;2023-12-28T14:33:50;100640.16;;;11.46;64.82
43125;BME280;49182;50.788;7.318;2023-12-28T14:38:52;100632.91;;;11.39;65.20
43125;BME280;49182;50.788;7.318;2023-12-28T14:43:55;100631.66;;;11.33;64.59
43125;BME280;49182;50.788;7.318;2023-12-28T14:48:58;100621.09;;;11.33;65.38
43125;BME280;49182;50.788;7.318;2023-12-28T14:54:00;100613.28;;;11.12;65.70
43125;BME280;49182;50.788;7.318;2023-12-28T14:59:02;100609.25;;;11.18;66.58
43125;BME280;49182;50.788;7.318;2023-12-28T15:04:06;100611.88;;;11.18;66.25
43125;BME280;49182;50.788;7.318;2023-12-28T15:09:07;100608.69;;;11.05;66.83
43125;BME280;49182;50.788;7.318;2023-12-28T15:14:09;100616.47;;;10.97;66.90
43125;BME280;49182;50.788;7.318;2023-12-28T15:19:14;100602.84;;;11.01;67.81
43125;BME280;49182;50.788;7.318;2023-12-28T15:24:16;100595.75;;;10.92;66.74
43125;BME280;49182;50.788;7.318;2023-12-28T15:29:19;100608.66;;;10.85;67.45
43125;BME280;49182;50.788;7.318;2023-12-28T15:34:22;100601.97;;;10.81;67.79
43125;BME280;49182;50.788;7.318;2023-12-28T15:39:24;100604.91;;;10.78;68.83
43125;BME280;49182;50.788;7.318;2023-12-28T15:44:25;100594.16;;;10.70;69.02
43125;BME280;49182;50.788;7.318;2023-12-28T15:49:28;100603.03;;;10.60;69.03
43125;BME280;49182;50.788;7.318;2023-12-28T15:54:31;100601.06;;;10.52;70.51
43125;BME280;49182;50.788;7.318;2023-12-28T15:59:33;100602.88;;;10.51;70.75
43125;BME280;49182;50.788;7.318;2023-12-28T16:04:36;100587.53;;;10.36;72.19
43125;BME280;49182;50.788;7.318;2023-12-28T16:09:38;100603.69;;;10.42;72.21
43125;BME280;49182;50.788;7.318;2023-12-28T16:14:40;100592.44;;;10.50;72.45
43125;BME280;49182;50.788;7.318;2023-12-28T16:19:44;100586.47;;;10.48;72.15
43125;BME280;49182;50.788;7.318;2023-12-28T16:24:46;100592.13;;;10.43;73.27
43125;BME280;49182;50.788;7.318;2023-12-28T16:29:48;100597.81;;;10.39;74.33
43125;BME280;49182;50.788;7.318;2023-12-28T16:34:51;100595.00;;;10.31;75.56
43125;BME280;49182;50.788;7.318;2023-12-28T16:39:53;100582.38;;;10.34;75.64
43125;BME280;49182;50.788;7.318;2023-12-28T16:44:54;100590.72;;;10.30;76.21
43125;BME280;49182;50.788;7.318;2023-12-28T16:49:58;100595.00;;;10.31;77.06
43125;BME280;49182;50.788;7.318;2023-12-28T16:55:00;100599.41;;;10.21;77.03
43125;BME280;49182;50.788;7.318;2023-12-28T17:00:02;100604.28;;;10.25;77.04
43125;BME280;49182;50.788;7.318;2023-12-28T17:05:15;100608.47;;;10.28;76.70
43125;BME280;49182;50.788;7.318;2023-12-28T17:10:18;100607.59;;;10.18;77.67
43125;BME280;49182;50.788;7.318;2023-12-28T17:15:20;100590.00;;;10.07;78.19
43125;BME280;49182;50.788;7.318;2023-12-28T17:20:25;100611.31;;;10.15;77.78
43125;BME280;49182;50.788;7.318;2023-12-28T17:25:31;100610.66;;;10.02;78.58
43125;BME280;49182;50.788;7.318;2023-12-28T17:30:39;100617.31;;;9.96;78.93
43125;BME280;49182;50.788;7.318;2023-12-28T17:35:43;100631.72;;;9.92;77.36
43125;BME280;49182;50.788;7.318;2023-12-28T17:40:46;100601.97;;;9.81;76.34
43125;BME280;49182;50.788;7.318;2023-12-28T17:45:54;100635.78;;;9.96;76.09
43125;BME280;49182;50.788;7.318;2023-12-28T17:51:00;100631.84;;;9.91;75.61
43125;BME280;49182;50.788;7.318;2023-12-28T17:56:03;100628.06;;;9.84;76.05
43125;BME280;49182;50.788;7.318;2023-12-28T18:01:05;100618.75;;;9.80;75.64
43125;BME280;49182;50.788;7.318;2023-12-28T18:06:08;100629.81;;;9.73;75.63
43125;BME280;49182;50.788;7.318;2023-12-28T18:11:10;100628.53;;;9.68;75.93
43125;BME280;49182;50.788;7.318;2023-12-28T18:16:12;100436.16;;;8.53;75.18
43125;BME280;49182;50.788;7.318;2023-12-28T18:21:16;100620.47;;;9.69;75.38
43125;BME280;49182;50.788;7.318;2023-12-28T18:26:18;100621.31;;;9.49;75.91
43125;BME280;49182;50.788;7.318;2023-12-28T18:31:19;100612.34;;;9.41;77.15
43125;BME280;49182;50.788;7.318;2023-12-28T18:36:23;100613.06;;;9.43;76.21
43125;BME280;49182;50.788;7.318;2023-12-28T18:41:25;100611.97;;;9.45;76.70
43125;BME280;49182;50.788;7.318;2023-12-28T18:46:26;100629.50;;;9.35;76.93
43125;BME280;49182;50.788;7.318;2023-12-28T18:51:30;100622.59;;;9.23;77.37
43125;BME280;49182;50.788;7.318;2023-12-28T18:56:31;100622.34;;;9.26;77.70
43125;BME280;49182;50.788;7.318;2023-12-28T19:01:33;100627.16;;;9.21;78.13
43125;BME280;49182;50.788;7.318;2023-12-28T19:06:36;100624.56;;;9.10;78.67
43125;BME280;49182;50.788;7.318;2023-12-28T19:11:38;100622.81;;;8.99;78.98
43125;BME280;49182;50.788;7.318;2023-12-28T19:16:40;100584.34;;;8.76;79.55
43125;BME280;49182;50.788;7.318;2023-12-28T19:21:43;100620.78;;;8.91;79.51
43125;BME280;49182;50.788;7.318;2023-12-28T19:26:45;100611.97;;;8.81;80.06
43125;BME280;49182;50.788;7.318;2023-12-28T19:31:47;100614.94;;;8.77;80.59
43125;BME280;49182;50.788;7.318;2023-12-28T19:36:50;100610.44;;;8.68;80.98
43125;BME280;49182;50.788;7.318;2023-12-28T19:41:52;100603.72;;;8.52;81.59
43125;BME280;49182;50.788;7.318;2023-12-28T19:46:54;100568.63;;;8.31;81.72
43125;BME280;49182;50.788;7.318;2023-12-28T19:51:57;100531.28;;;8.15;81.73
43125;BME280;49182;50.788;7.318;2023-12-28T19:57:00;100578.41;;;8.40;82.27
43125;BME280;49182;50.788;7.318;2023-12-28T20:02:01;100530.13;;;8.08;82.51
43125;BME280;49182;50.788;7.318;2023-12-28T20:07:04;100612.25;;;8.34;83.12
43125;BME280;49182;50.788;7.318;2023-12-28T20:12:06;100602.66;;;8.22;84.20
43125;BME280;49182;50.788;7.318;2023-12-28T20:17:08;100599.28;;;8.08;84.93
43125;BME280;49182;50.788;7.318;2023-12-28T20:22:11;100587.44;;;7.92;87.39
43125;BME280;49182;50.788;7.318;2023-12-28T20:27:13;100560.66;;;7.64;86.64
43125;BME280;49182;50.788;7.318;2023-12-28T20:32:15;100588.91;;;7.96;87.93
43125;BME280;49182;50.788;7.318;2023-12-28T20:37:18;100594.75;;;8.10;86.13
43125;BME280;49182;50.788;7.318;2023-12-28T20:42:20;100595.38;;;8.14;86.69
43125;BME280;49182;50.788;7.318;2023-12-28T20:47:21;100594.53;;;8.25;86.28
43125;BME280;49182;50.788;7.318;2023-12-28T20:52:25;100590.50;;;8.32;85.42
43125;BME280;49182;50.788;7.318;2023-12-28T20:57:26;100599.09;;;8.34;85.47
43125;BME280;49182;50.788;7.318;2023-12-28T21:02:28;100599.34;;;8.31;85.99
43125;BME280;49182;50.788;7.318;2023-12-28T21:07:31;100593.44;;;8.27;86.24
43125;BME280;49182;50.788;7.318;2023-12-28T21:12:33;100579.09;;;8.09;86.29
43125;BME280;49182;50.788;7.318;2023-12-28T21:17:34;100596.31;;;8.24;85.54
43125;BME280;49182;50.788;7.318;2023-12-28T21:22:38;100594.28;;;8.28;85.13
43125;BME280;49182;50.788;7.318;2023-12-28T21:27:40;100600.38;;;8.28;85.90
43125;BME280;49182;50.788;7.318;2023-12-28T21:32:41;100596.59;;;8.43;84.16
43125;BME280;49182;50.788;7.318;2023-12-28T21:37:45;100605.19;;;8.45;84.27
43125;BME280;49182;50.788;7.318;2023-12-28T21:42:47;100603.25;;;8.59;83.93
43125;BME280;49182;50.788;7.318;2023-12-28T21:47:48;100591.50;;;8.74;83.32
43125;BME280;49182;50.788;7.318;2023-12-28T21:52:52;100586.72;;;8.79;82.29
43125;BME280;49182;50.788;7.318;2023-12-28T21:57:53;100575.31;;;8.89;81.99
43125;BME280;49182;50.788;7.318;2023-12-28T22:02:55;100558.88;;;8.97;82.01
43125;BME280;49182;50.788;7.318;2023-12-28T22:07:58;100566.63;;;9.10;80.87
43125;BME280;49182;50.788;7.318;2023-12-28T22:13:00;100572.22;;;9.16;80.63
43125;BME280;49182;50.788;7.318;2023-12-28T22:18:02;100559.94;;;9.26;80.52
43125;BME280;49182;50.788;7.318;2023-12-28T22:23:06;100565.22;;;9.26;80.51
43125;BME280;49182;50.788;7.318;2023-12-28T22:28:08;100562.91;;;9.33;79.80
43125;BME280;49182;50.788;7.318;2023-12-28T22:33:10;100543.44;;;9.45;79.36
43125;BME280;49182;50.788;7.318;2023-12-28T22:38:13;100524.47;;;9.51;78.34
43125;BME280;49182;50.788;7.318;2023-12-28T22:43:15;100537.22;;;9.46;78.30
43125;BME280;49182;50.788;7.318;2023-12-28T22:48:17;100529.63;;;9.53;78.18
43125;BME280;49182;50.788;7.318;2023-12-28T22:53:20;100530.22;;;9.56;77.52
43125;BME280;49182;50.788;7.318;2023-12-28T22:58:22;100521.31;;;9.57;78.22
43125;BME280;49182;50.788;7.318;2023-12-28T23:03:24;100523.84;;;9.59;78.29
43125;BME280;49182;50.788;7.318;2023-12-28T23:08:27;100523.84;;;9.59;78.18
43125;BME280;49182;50.788;7.318;2023-12-28T23:13:30;100472.66;;;9.31;76.99
43125;BME280;49182;50.788;7.318;2023-12-28T23:18:32;100518.69;;;9.57;77.29
43125;BME280;49182;50.788;7.318;2023-12-28T23:23:35;100514.09;;;9.50;77.95
43125;BME280;49182;50.788;7.318;2023-12-28T23:28:37;100499.47;;;9.46;78.42
43125;BME280;49182;50.788;7.318;2023-12-28T23:33:39;100492.22;;;9.38;78.12
43125;BME280;49182;50.788;7.318;2023-12-28T23:38:42;100506.50;;;9.56;78.20
43125;BME280;49182;50.788;7.318;2023-12-28T23:43:43;100420.03;;;8.99;78.21
43125;BME280;49182;50.788;7.318;2023-12-28T23:48:45;100507.78;;;9.62;77.68
43125;BME280;49182;50.788;7.318;2023-12-28T23:53:48;100499.34;;;9.68;77.84
43125;BME280;49182;50.788;7.318;2023-12-28T23:58:51;100493.22;;;9.67;78.33
